Time;durP1;ratioP1;P1;durP2;ratioP2;P2;SDS_P1;SDS_P2;PMS_P1;PMS_P2;Temp;Humidity;BMP_temperature;BMP_pressure;BME280_temperature;BME280_humidity;BME280_pressure;Samples;Min_cycle;Max_cycle;Signal;HPM_P1;HPM_P2
2022/02/28 00:00:38;;;;;;;8.60;4.13;;;;;;;4.40;47.87;103049.75;4947692;28;114253;-66
2022/02/28 00:03:05;;;;;;;10.10;4.53;;;;;;;4.38;47.86;103056.72;4934348;28;123045;-66
2022/02/28 00:05:33;;;;;;;9.38;4.30;;;;;;;4.35;48.10;103056.69;4949370;28;124597;-67
2022/02/28 00:08:00;;;;;;;10.45;4.50;;;;;;;4.34;48.18;103064.53;4933713;28;114126;-67
2022/02/28 00:10:28;;;;;;;7.80;4.10;;;;;;;4.32;48.17;103066.25;4950860;28;114962;-66
2022/02/28 00:12:55;;;;;;;8.98;4.22;;;;;;;4.33;48.58;103068.84;4950785;28;124673;-66
2022/02/28 00:15:22;;;;;;;10.00;4.60;;;;;;;4.32;48.29;103077.59;4934374;28;122756;-66
2022/02/28 00:17:50;;;;;;;9.40;4.30;;;;;;;4.31;48.47;103070.56;4950850;28;114474;-66
2022/02/28 00:20:18;;;;;;;8.15;4.15;;;;;;;4.29;48.41;103072.28;4949882;28;113111;-66
2022/02/28 00:22:45;;;;;;;8.48;4.40;;;;;;;4.27;48.21;103074.88;4950658;28;123293;-67
2022/02/28 00:25:13;;;;;;;9.20;4.40;;;;;;;4.26;48.42;103074.88;4950779;28;122811;-66
2022/02/28 00:27:40;;;;;;;7.65;4.18;;;;;;;4.24;48.31;103073.97;4950526;28;113258;-66
2022/02/28 00:30:08;;;;;;;7.63;4.25;;;;;;;4.22;48.57;103070.41;4949377;28;114379;-66
2022/02/28 00:32:38;;;;;;;8.40;3.92;;;;;;;4.21;48.61;103073.91;4950413;28;123330;-66
2022/02/28 00:35:07;;;;;;;9.10;4.07;;;;;;;4.19;48.39;103059.91;4932829;28;123725;-66
2022/02/28 00:37:36;;;;;;;9.75;4.63;;;;;;;4.18;48.58;103058.13;4933477;28;115519;-66
2022/02/28 00:40:05;;;;;;;10.07;4.15;;;;;;;4.15;48.73;103058.09;4933477;28;114525;-66
2022/02/28 00:42:33;;;;;;;7.75;3.75;;;;;;;4.13;48.62;103054.56;4934104;28;123234;-66
2022/02/28 00:45:00;;;;;;;11.57;4.05;;;;;;;4.12;48.67;103063.25;4950231;28;122686;-66
2022/02/28 00:47:28;;;;;;;7.43;3.65;;;;;;;4.10;48.69;103061.47;4947992;28;114302;-66
2022/02/28 00:49:55;;;;;;;9.57;4.22;;;;;;;4.08;48.70;103057.94;4950367;28;114404;-66
2022/02/28 00:52:22;;;;;;;7.28;3.50;;;;;;;4.08;48.96;103060.56;4950465;28;124757;-66
2022/02/28 00:54:49;;;;;;;9.10;4.15;;;;;;;4.09;48.99;103058.84;4948591;28;124317;-66
2022/02/28 00:57:17;;;;;;;9.25;4.10;;;;;;;4.09;49.01;103054.47;4950481;28;114011;-67
2022/02/28 00:59:44;;;;;;;8.15;4.18;;;;;;;4.10;48.84;103051.00;4933754;28;112904;-66
2022/02/28 01:02:11;;;;;;;9.13;3.50;;;;;;;4.10;48.95;103051.00;4948134;28;124872;-66
2022/02/28 01:04:39;;;;;;;9.93;3.95;;;;;;;4.12;49.08;103052.78;4950540;28;124386;-70
2022/02/28 01:07:06;;;;;;;5.47;3.33;;;;;;;4.11;49.28;103046.66;4950122;28;114858;-67
2022/02/28 01:09:34;;;;;;;7.85;3.55;;;;;;;4.09;49.02;103043.13;4949809;28;113657;-67
2022/02/28 01:12:03;;;;;;;8.43;3.47;;;;;;;4.08;49.13;103039.59;4932709;28;123157;-66
2022/02/28 01:14:31;;;;;;;6.15;3.42;;;;;;;4.06;49.13;103043.94;4949134;28;123453;-66
2022/02/28 01:16:58;;;;;;;7.07;3.25;;;;;;;4.06;49.46;103043.94;4950121;28;113410;-66
2022/02/28 01:19:25;;;;;;;8.50;3.38;;;;;;;4.05;49.08;103038.66;4934039;28;112855;-67
2022/02/28 01:21:53;;;;;;;7.07;3.60;;;;;;;4.05;49.23;103030.78;4948469;28;123249;-66
2022/02/28 01:24:20;;;;;;;9.48;3.35;;;;;;;4.05;49.29;103036.03;4949823;28;123206;-66
2022/02/28 01:26:50;;;;;;;9.43;3.28;;;;;;;4.04;49.25;103040.41;4949461;28;114214;-66
2022/02/28 01:29:17;;;;;;;8.05;3.50;;;;;;;4.06;49.29;103033.44;4948496;28;115043;-66
2022/02/28 01:31:44;;;;;;;8.75;3.60;;;;;;;4.08;49.54;103042.22;4947635;28;123881;-66
2022/02/28 01:34:11;;;;;;;7.60;3.33;;;;;;;4.12;49.41;103039.66;4949389;28;122971;-67
2022/02/28 01:36:39;;;;;;;7.43;3.80;;;;;;;4.15;49.42;103039.72;4934084;28;114138;-66
2022/02/28 01:39:06;;;;;;;7.13;3.42;;;;;;;4.16;49.37;103039.72;4931061;28;114239;-66
2022/02/28 01:41:33;;;;;;;6.93;3.70;;;;;;;4.19;48.77;103038.91;4947249;28;124207;-66
2022/02/28 01:44:03;;;;;;;9.93;3.25;;;;;;;4.17;49.31;103040.63;4951057;28;124128;-66
2022/02/28 01:46:31;;;;;;;7.35;3.65;;;;;;;4.18;49.32;103042.38;4950883;28;115239;-66
2022/02/28 01:48:58;;;;;;;8.50;3.63;;;;;;;4.17;49.44;103043.25;4949753;28;113328;-66
2022/02/28 01:51:26;;;;;;;9.18;3.53;;;;;;;4.18;49.34;103043.28;4948516;28;122998;-66
2022/02/28 01:53:53;;;;;;;7.45;3.60;;;;;;;4.19;49.50;103044.16;4949390;28;124413;-66
2022/02/28 01:56:21;;;;;;;7.45;3.38;;;;;;;4.19;49.25;103037.16;4949647;28;114287;-66
2022/02/28 01:58:48;;;;;;;5.40;2.95;;;;;;;4.22;49.40;103049.44;4933542;28;113584;-66
2022/02/28 02:01:16;;;;;;;6.47;2.95;;;;;;;4.21;49.37;103047.69;4948450;28;123061;-66
2022/02/28 02:03:44;;;;;;;7.65;3.20;;;;;;;4.21;49.03;103042.44;4948358;28;124371;-67
2022/02/28 02:06:12;;;;;;;9.43;3.40;;;;;;;4.21;49.29;103037.19;4961049;28;113322;-67
2022/02/28 02:08:41;;;;;;;7.93;3.10;;;;;;;4.20;49.38;103040.66;4937545;28;112964;-67
2022/02/28 02:11:08;;;;;;;8.45;3.80;;;;;;;4.19;49.43;103044.16;4968282;28;123217;-66
2022/02/28 02:13:37;;;;;;;8.50;3.75;;;;;;;4.18;49.38;103051.16;4951566;28;122913;-66
2022/02/28 02:16:05;;;;;;;8.50;3.40;;;;;;;4.16;49.29;103044.09;4968385;28;115194;-66
2022/02/28 02:18:33;;;;;;;8.23;3.42;;;;;;;4.16;49.73;103049.34;4936745;28;114182;-66
2022/02/28 02:21:01;;;;;;;9.88;3.70;;;;;;;4.17;49.50;103051.13;4966255;28;124093;-66
2022/02/28 02:23:29;;;;;;;6.13;3.15;;;;;;;4.19;49.55;103049.41;4951828;28;123036;-67
2022/02/28 02:25:58;;;;;;;9.30;3.63;;;;;;;4.20;49.54;103038.94;4972022;28;113929;-68
2022/02/28 02:28:27;;;;;;;7.85;3.58;;;;;;;4.20;49.58;103038.03;4971999;28;113003;-66
2022/02/28 02:30:56;;;;;;;7.68;3.13;;;;;;;4.20;49.59;103045.91;4971282;28;123307;-66
2022/02/28 02:33:24;;;;;;;7.68;3.45;;;;;;;4.19;49.51;103028.41;4971773;28;123053;-67
2022/02/28 02:35:57;;;;;;;7.57;3.17;;;;;;;4.18;49.37;103038.03;4972577;28;113509;-67
2022/02/28 02:38:26;;;;;;;6.93;3.50;;;;;;;4.18;49.46;103037.13;4939225;28;113368;-64
2022/02/28 02:40:54;;;;;;;8.98;3.42;;;;;;;4.18;49.57;103037.13;4970417;28;123391;-65
2022/02/28 02:43:22;;;;;;;7.25;3.03;;;;;;;4.16;49.76;103033.59;4954954;28;122899;-65
2022/02/28 02:45:49;;;;;;;7.18;3.10;;;;;;;4.16;49.62;103033.59;4971331;28;114289;-65
2022/02/28 02:48:24;;;;;;;6.75;3.40;;;;;;;4.15;49.55;103034.47;4939855;28;113779;-65
2022/02/28 02:50:59;;;;;;;8.55;3.38;;;;;;;4.15;49.59;103031.84;4954336;28;123389;-66
2022/02/28 02:53:27;;;;;;;7.13;3.53;;;;;;;4.13;49.48;103034.44;4954265;28;123957;-66
2022/02/28 02:55:55;;;;;;;5.90;3.05;;;;;;;4.15;49.78;103031.84;4939943;28;114275;-66
2022/02/28 02:58:22;;;;;;;7.03;3.40;;;;;;;4.14;49.63;103030.94;4939957;28;113313;-66
2022/02/28 03:00:52;;;;;;;8.63;3.55;;;;;;;4.13;49.60;103033.56;4970831;28;124025;-66
2022/02/28 03:03:32;;;;;;;8.30;3.50;;;;;;;4.12;49.65;103037.03;4954781;28;123238;-66
2022/02/28 03:06:02;;;;;;;7.10;3.58;;;;;;;4.09;49.50;103033.50;4969417;28;115249;-66
2022/02/28 03:08:32;;;;;;;7.97;3.10;;;;;;;4.09;49.59;103033.50;4971487;28;114307;-66
2022/02/28 03:11:00;;;;;;;6.35;3.17;;;;;;;4.07;49.47;103029.09;4954694;28;123698;-66
2022/02/28 03:13:27;;;;;;;7.07;3.28;;;;;;;4.04;49.62;103035.16;4954096;28;124020;-67
2022/02/28 03:15:55;;;;;;;7.03;3.30;;;;;;;4.02;49.72;103026.38;4971494;28;113374;-66
2022/02/28 03:18:24;;;;;;;7.30;3.60;;;;;;;3.99;49.72;103021.06;4954761;28;112838;-67
2022/02/28 03:20:52;;;;;;;7.57;3.25;;;;;;;3.98;49.60;103024.56;4969738;28;125081;-66
2022/02/28 03:23:19;;;;;;;7.35;3.30;;;;;;;3.97;49.81;103016.66;4955061;28;123306;-68
2022/02/28 03:25:55;;;;;;;7.45;3.03;;;;;;;3.96;49.79;103014.94;4955022;28;113859;-66
2022/02/28 03:28:22;;;;;;;8.50;3.53;;;;;;;3.94;49.73;102999.16;4971108;28;113012;-66
2022/02/28 03:30:49;;;;;;;6.70;3.50;;;;;;;3.93;49.84;103000.00;4968318;28;124846;-66
2022/02/28 03:33:17;;;;;;;6.57;3.53;;;;;;;3.94;50.06;102995.63;4970298;28;123625;-66
2022/02/28 03:35:45;;;;;;;8.60;3.40;;;;;;;3.93;50.17;102997.38;4970295;28;113963;-66
2022/02/28 03:38:13;;;;;;;8.50;3.40;;;;;;;3.94;49.96;102999.16;4971141;28;113267;-66
2022/02/28 03:40:40;;;;;;;8.02;4.03;;;;;;;3.95;49.97;103002.66;4953910;28;122951;-66
2022/02/28 03:43:07;;;;;;;6.03;3.40;;;;;;;3.97;49.94;102991.31;4953885;28;123484;-66
2022/02/28 03:45:55;;;;;;;6.93;3.63;;;;;;;3.98;50.17;102993.09;4967382;28;114719;-66
2022/02/28 03:48:26;;;;;;;8.65;3.50;;;;;;;4.00;50.07;102999.25;4960420;28;113193;-66
2022/02/28 03:51:15;;;;;;;7.80;3.30;;;;;;;3.98;49.89;102993.09;4934210;28;123504;-66
2022/02/28 03:53:44;;;;;;;6.63;3.60;;;;;;;4.00;50.00;102998.38;4936588;28;96659;-66
2022/02/28 03:56:12;;;;;;;9.75;3.70;;;;;;;4.01;50.08;102994.88;4933851;28;114954;-66
2022/02/28 03:58:39;;;;;;;9.00;3.85;;;;;;;4.02;50.19;102994.91;4950973;28;114262;-66
2022/02/28 04:01:08;;;;;;;10.13;3.83;;;;;;;4.02;50.10;103005.41;4934211;28;122990;-66
2022/02/28 04:03:41;;;;;;;6.15;3.67;;;;;;;4.04;50.25;103003.69;4934438;28;123249;-66
2022/02/28 04:06:08;;;;;;;6.47;3.58;;;;;;;4.05;50.15;103005.47;4935174;28;113432;-66
2022/02/28 04:08:38;;;;;;;9.55;3.92;;;;;;;4.06;50.00;103011.59;4950717;28;113104;-66
2022/02/28 04:11:06;;;;;;;7.32;3.70;;;;;;;4.06;49.99;103012.47;4949320;28;124152;-66
2022/02/28 04:13:33;;;;;;;7.80;3.85;;;;;;;4.05;50.07;103005.47;4919058;28;123014;-66
2022/02/28 04:16:01;;;;;;;8.02;3.70;;;;;;;4.05;50.14;103010.72;4934248;28;113367;-66
2022/02/28 04:18:32;;;;;;;8.43;4.00;;;;;;;4.04;49.84;103014.19;4951044;28;113173;-66
2022/02/28 04:21:19;;;;;;;8.23;3.70;;;;;;;4.04;49.75;103014.19;4933392;28;123242;-66
2022/02/28 04:23:51;;;;;;;8.35;3.63;;;;;;;4.01;49.93;103011.53;4934315;28;123033;-65
2022/02/28 04:26:19;;;;;;;9.60;3.80;;;;;;;3.99;49.88;103009.72;4934921;28;113376;-65
2022/02/28 04:28:47;;;;;;;6.97;3.67;;;;;;;3.97;49.94;103011.44;4934821;28;113227;-65
2022/02/28 04:31:15;;;;;;;7.43;4.10;;;;;;;3.92;50.03;103008.75;4949951;28;123206;-65
2022/02/28 04:33:43;;;;;;;12.35;4.20;;;;;;;3.89;50.04;103003.44;4917900;28;122964;-65
2022/02/28 04:36:11;;;;;;;7.03;3.65;;;;;;;3.84;50.04;103011.22;4934531;28;113486;-65
2022/02/28 04:38:38;;;;;;;10.52;4.32;;;;;;;3.79;49.96;103002.41;4950888;28;113204;-65
2022/02/28 04:41:06;;;;;;;8.80;3.78;;;;;;;3.75;49.90;103002.28;4917708;28;123197;-66
2022/02/28 04:43:33;;;;;;;7.32;3.65;;;;;;;3.69;49.51;103001.34;4950230;28;123647;-65
2022/02/28 04:46:01;;;;;;;7.45;4.03;;;;;;;3.65;49.77;102998.63;4934016;28;114981;-65
2022/02/28 04:48:28;;;;;;;9.15;4.28;;;;;;;3.62;50.13;102999.47;4949570;28;114148;-66
2022/02/28 04:51:26;;;;;;;9.05;4.10;;;;;;;3.58;50.04;103002.88;4949062;28;122878;-65
2022/02/28 04:53:54;;;;;;;7.30;3.92;;;;;;;3.55;49.92;103008.06;4933611;28;122904;-65
2022/02/28 04:56:21;;;;;;;9.88;3.88;;;;;;;3.51;50.16;103006.25;4934576;28;114024;-65
2022/02/28 04:58:49;;;;;;;12.32;4.00;;;;;;;3.48;50.19;103008.78;4950283;28;113116;-65
2022/02/28 05:01:36;;;;;;;6.85;3.70;;;;;;;3.47;50.06;103004.41;4950353;28;125176;-65
2022/02/28 05:04:18;;;;;;;11.52;4.47;;;;;;;3.45;50.15;103000.88;4934120;28;121740;-65
2022/02/28 05:06:45;;;;;;;8.93;4.15;;;;;;;3.41;49.94;102994.69;4934156;28;113303;-65
2022/02/28 05:09:15;;;;;;;8.73;3.92;;;;;;;3.40;49.96;102994.66;4918390;28;113057;-65
2022/02/28 05:11:43;;;;;;;6.25;3.88;;;;;;;3.38;50.22;102999.00;4932894;28;123873;-65
2022/02/28 05:14:10;;;;;;;7.13;3.90;;;;;;;3.36;50.13;103005.94;4933333;28;123071;-65
2022/02/28 05:16:37;;;;;;;8.95;4.18;;;;;;;3.31;50.20;103009.34;4950216;28;113310;-65
2022/02/28 05:19:05;;;;;;;6.70;3.75;;;;;;;3.31;50.10;103014.59;4949934;28;114757;-66
2022/02/28 05:21:34;;;;;;;7.35;3.80;;;;;;;3.29;50.36;103000.56;4950120;28;124286;-64
2022/02/28 05:24:03;;;;;;;9.55;4.07;;;;;;;3.29;50.20;102997.94;4933617;28;123114;-65
2022/02/28 05:26:31;;;;;;;8.68;3.80;;;;;;;3.29;50.32;103005.78;4934157;28;113541;-65
2022/02/28 05:28:58;;;;;;;11.02;4.40;;;;;;;3.29;50.17;103011.03;4949011;28;114533;-65
2022/02/28 05:31:25;;;;;;;12.75;4.43;;;;;;;3.29;50.44;103000.56;4933064;28;123106;-65
2022/02/28 05:34:12;;;;;;;8.23;4.57;;;;;;;3.28;50.42;102992.69;4950625;28;125017;-65
2022/02/28 05:36:42;;;;;;;8.98;4.00;;;;;;;3.28;50.38;102997.94;4933378;28;114188;-65
2022/02/28 05:39:38;;;;;;;8.85;4.05;;;;;;;3.26;50.47;102995.28;4937068;28;115042;-65
2022/02/28 05:42:06;;;;;;;9.82;3.88;;;;;;;3.25;50.43;102998.75;4933123;28;123173;-65
2022/02/28 05:44:35;;;;;;;8.25;4.00;;;;;;;3.24;50.37;103002.22;4934056;28;122997;-65
2022/02/28 05:47:03;;;;;;;11.25;4.50;;;;;;;3.24;50.75;103002.22;4950016;28;113832;-65
2022/02/28 05:49:35;;;;;;;7.40;4.18;;;;;;;3.24;50.42;103006.56;4933127;28;113162;-65
2022/02/28 05:52:03;;;;;;;9.73;4.05;;;;;;;3.23;50.63;103010.91;4948112;28;125132;-65
2022/02/28 05:54:31;;;;;;;9.35;4.18;;;;;;;3.23;50.66;103016.16;4933796;28;123328;-65
2022/02/28 05:56:58;;;;;;;9.73;3.88;;;;;;;3.22;50.84;103011.78;4933508;28;113497;-65
2022/02/28 05:59:25;;;;;;;10.20;4.05;;;;;;;3.23;50.66;103016.16;4934567;28;112910;-65
2022/02/28 06:01:52;;;;;;;8.05;4.00;;;;;;;3.23;50.69;103015.28;4951998;28;122835;-64
2022/02/28 06:04:20;;;;;;;9.02;4.25;;;;;;;3.22;50.69;103014.41;4951775;28;123983;-64
2022/02/28 06:06:47;;;;;;;10.13;4.10;;;;;;;3.21;50.65;103022.22;4951464;28;115292;-64
2022/02/28 06:09:14;;;;;;;9.88;4.28;;;;;;;3.21;50.73;103023.09;4936495;28;114102;-65
2022/02/28 06:11:49;;;;;;;6.70;3.85;;;;;;;3.20;50.55;103021.34;4950088;28;124577;-64
2022/02/28 06:14:17;;;;;;;7.57;3.92;;;;;;;3.21;50.46;103027.47;4953092;28;123739;-65
2022/02/28 06:16:48;;;;;;;8.98;4.30;;;;;;;3.19;50.56;103030.03;4950490;28;114328;-64
2022/02/28 06:19:17;;;;;;;10.40;4.32;;;;;;;3.19;50.57;103026.56;4952533;28;113050;-64
2022/02/28 06:21:45;;;;;;;10.07;4.38;;;;;;;3.18;50.80;103032.63;4950829;28;123395;-64
2022/02/28 06:24:12;;;;;;;9.30;4.47;;;;;;;3.16;50.74;103032.59;4935397;28;123029;-64
2022/02/28 06:26:39;;;;;;;10.27;4.25;;;;;;;3.15;51.00;103043.94;4951204;28;115087;-64
2022/02/28 06:29:06;;;;;;;7.88;3.97;;;;;;;3.16;50.63;103043.06;4951583;28;115305;-64
2022/02/28 06:31:34;;;;;;;10.98;4.22;;;;;;;3.17;50.84;103036.97;4949404;28;124090;-64
2022/02/28 06:34:01;;;;;;;8.68;4.30;;;;;;;3.16;50.79;103029.97;4952439;28;123708;-64
2022/02/28 06:36:28;;;;;;;9.15;4.50;;;;;;;3.17;50.80;103036.97;4952733;28;113178;-64
2022/02/28 06:38:55;;;;;;;13.63;4.38;;;;;;;3.18;50.86;103038.72;4951519;28;113901;-64
2022/02/28 06:41:24;;;;;;;8.15;4.40;;;;;;;3.18;50.97;103041.34;4936265;28;122838;-64
2022/02/28 06:43:51;;;;;;;11.57;4.13;;;;;;;3.18;50.88;103037.84;4936816;28;123684;-64
2022/02/28 06:46:18;;;;;;;8.23;4.40;;;;;;;3.17;50.73;103042.22;4936601;28;114128;-64
2022/02/28 06:48:46;;;;;;;9.05;4.43;;;;;;;3.15;50.76;103049.16;4953182;28;113202;-65
2022/02/28 06:51:14;;;;;;;8.40;4.20;;;;;;;3.13;50.77;103050.88;4934864;28;123172;-64
2022/02/28 06:53:42;;;;;;;8.32;4.25;;;;;;;3.13;50.94;103050.88;4936214;28;122699;-64
2022/02/28 06:56:09;;;;;;;9.65;4.32;;;;;;;3.13;50.77;103050.88;4933916;28;114392;-64
2022/02/28 06:58:37;;;;;;;9.55;4.55;;;;;;;3.12;50.81;103054.31;4951176;28;114354;-64
2022/02/28 07:01:06;;;;;;;7.63;4.00;;;;;;;3.12;50.96;103049.09;4935657;28;123336;-64
2022/02/28 07:04:04;;;;;;;12.00;4.63;;;;;;;3.12;50.81;103043.84;4936364;28;124724;-64
2022/02/28 07:06:36;;;;;;;11.68;4.40;;;;;;;3.14;51.13;103054.34;4952110;28;114938;-64
2022/02/28 07:09:07;;;;;;;10.02;4.35;;;;;;;3.16;51.40;103053.53;4936788;28;113343;-64
2022/02/28 07:11:35;;;;;;;9.23;4.50;;;;;;;3.21;51.18;103049.28;4949803;28;124383;-64
2022/02/28 07:14:03;;;;;;;8.68;4.43;;;;;;;3.25;51.52;103045.00;4935990;28;122656;-64
2022/02/28 07:16:31;;;;;;;11.93;5.25;;;;;;;3.34;51.37;103049.56;4919905;28;114356;-63
2022/02/28 07:18:59;;;;;;;9.90;4.35;;;;;;;3.42;51.70;103054.06;4953982;28;114735;-64
2022/02/28 07:21:26;;;;;;;10.45;4.55;;;;;;;3.52;51.82;103060.38;4949972;28;124849;-64
2022/02/28 07:23:57;;;;;;;8.85;4.88;;;;;;;3.61;51.70;103054.44;4953004;28;123935;-64
2022/02/28 07:26:25;;;;;;;9.50;4.55;;;;;;;3.72;51.81;103046.81;4950654;28;114342;-64
2022/02/28 07:28:52;;;;;;;13.25;5.35;;;;;;;3.79;51.76;103048.69;4936171;28;113747;-65
2022/02/28 07:31:36;;;;;;;10.10;4.88;;;;;;;3.89;51.70;103053.25;4951543;28;122848;-64
2022/02/28 07:34:03;;;;;;;9.27;4.90;;;;;;;3.95;51.69;103053.34;4953536;28;124510;-69
2022/02/28 07:36:30;;;;;;;12.73;5.00;;;;;;;4.01;51.61;103053.47;4952831;28;114189;-64
2022/02/28 07:38:58;;;;;;;9.23;4.65;;;;;;;4.05;51.23;103052.66;4950437;28;114025;-64
2022/02/28 07:41:25;;;;;;;12.52;5.28;;;;;;;4.10;51.36;103055.34;4948981;28;124038;-64
2022/02/28 07:43:52;;;;;;;11.02;5.30;;;;;;;4.13;51.43;103065.91;4951274;28;123758;-64
2022/02/28 07:46:20;;;;;;;11.25;4.97;;;;;;;4.18;51.46;103068.59;4952083;28;114684;-64
2022/02/28 07:48:47;;;;;;;10.15;5.22;;;;;;;4.22;51.27;103065.16;4935847;28;113262;-64
2022/02/28 07:51:16;;;;;;;11.60;5.55;;;;;;;4.28;51.53;103073.16;4950831;28;124349;-64
2022/02/28 07:53:43;;;;;;;10.90;5.30;;;;;;;4.31;51.43;103065.31;4935200;28;123369;-64
2022/02/28 07:56:10;;;;;;;10.75;5.32;;;;;;;4.38;51.64;103077.69;4932774;28;114633;-64
2022/02/28 07:58:37;;;;;;;11.63;4.88;;;;;;;4.43;51.46;103070.78;4936365;28;113099;-64
2022/02/28 08:01:06;;;;;;;12.52;4.95;;;;;;;4.49;51.26;103076.13;4934763;28;123146;-64
2022/02/28 08:03:34;;;;;;;11.80;5.88;;;;;;;4.56;51.37;103076.22;4951994;28;124066;-65
2022/02/28 08:06:01;;;;;;;10.40;4.70;;;;;;;4.60;51.30;103083.31;4952248;28;114956;-64
2022/02/28 08:08:29;;;;;;;9.88;4.88;;;;;;;4.65;51.36;103086.88;4933011;28;114994;-64
2022/02/28 08:10:56;;;;;;;10.85;5.25;;;;;;;4.71;51.17;103092.25;4932739;28;124092;-64
2022/02/28 08:13:23;;;;;;;10.07;4.78;;;;;;;4.75;51.58;103094.06;4950394;28;123830;-64
2022/02/28 08:15:50;;;;;;;11.90;5.35;;;;;;;4.80;51.36;103089.75;4934711;28;114537;-65
2022/02/28 08:18:18;;;;;;;10.57;5.35;;;;;;;4.85;51.21;103095.06;4951394;28;112838;-65
2022/02/28 08:20:45;;;;;;;12.27;5.78;;;;;;;4.91;51.13;103099.53;4934179;28;124350;-64
2022/02/28 08:23:12;;;;;;;11.50;5.57;;;;;;;4.96;51.42;103103.13;4934792;28;122679;-65
2022/02/28 08:25:42;;;;;;;9.95;5.03;;;;;;;5.01;51.45;103090.91;4934969;28;113160;-65
2022/02/28 08:28:10;;;;;;;11.90;5.50;;;;;;;5.05;51.23;103098.00;4934953;28;113227;-66
2022/02/28 08:30:38;;;;;;;10.70;5.30;;;;;;;5.11;51.36;103087.56;4933477;28;124599;-65
2022/02/28 08:33:05;;;;;;;9.30;5.30;;;;;;;5.20;51.55;103092.09;4951536;28;123957;-65
2022/02/28 08:35:32;;;;;;;12.48;5.90;;;;;;;5.28;51.21;103094.81;4932445;28;115570;-65
2022/02/28 08:38:00;;;;;;;12.00;5.72;;;;;;;5.33;51.68;103087.84;4949594;28;114077;-65
2022/02/28 08:40:27;;;;;;;12.77;5.40;;;;;;;5.40;51.47;103084.44;4948767;28;124242;-65
2022/02/28 08:42:57;;;;;;;10.68;5.13;;;;;;;5.48;51.57;103088.03;4950444;28;122732;-65
2022/02/28 08:45:24;;;;;;;8.10;4.65;;;;;;;5.57;51.25;103088.16;4935151;28;113739;-65
2022/02/28 08:47:52;;;;;;;9.73;5.55;;;;;;;5.64;51.49;103089.13;4935189;28;113065;-65
2022/02/28 08:50:19;;;;;;;10.23;5.43;;;;;;;5.74;51.56;103084.84;4934127;28;123360;-66
2022/02/28 08:52:47;;;;;;;11.98;5.55;;;;;;;5.83;51.47;103082.31;4950068;28;124272;-65
2022/02/28 08:55:14;;;;;;;9.43;5.30;;;;;;;5.93;51.24;103080.66;4950577;28;114548;-65
2022/02/28 08:57:41;;;;;;;9.25;4.82;;;;;;;6.03;51.22;103088.72;4934366;28;114111;-65
2022/02/28 09:00:10;;;;;;;9.77;5.10;;;;;;;6.15;51.23;103080.03;4951160;28;123848;-66
2022/02/28 09:02:38;;;;;;;9.77;5.20;;;;;;;6.27;51.27;103076.63;4949610;28;124024;-65
2022/02/28 09:05:07;;;;;;;12.02;5.10;;;;;;;6.37;50.89;103073.22;4950462;28;114126;-66
2022/02/28 09:07:35;;;;;;;10.02;5.50;;;;;;;6.49;50.96;103082.09;4934861;28;113227;-65
2022/02/28 09:10:03;;;;;;;10.68;5.30;;;;;;;6.61;51.03;103087.44;4949622;28;124468;-66
2022/02/28 09:12:30;;;;;;;8.98;5.20;;;;;;;6.73;51.13;103087.56;4932262;28;123977;-65
2022/02/28 09:14:59;;;;;;;11.30;5.43;;;;;;;6.86;51.23;103092.94;4931800;28;114616;-65
2022/02/28 09:17:26;;;;;;;10.50;5.75;;;;;;;6.97;50.96;103078.94;4949125;28;114089;-66
2022/02/28 09:19:53;;;;;;;10.55;5.18;;;;;;;7.09;50.65;103072.84;4949263;28;123048;-65
2022/02/28 09:22:21;;;;;;;9.35;4.93;;;;;;;7.21;50.58;103070.28;4951355;28;123955;-66
2022/02/28 09:24:48;;;;;;;10.45;4.88;;;;;;;7.34;50.73;103075.59;4951220;28;114458;-66
2022/02/28 09:27:15;;;;;;;11.50;5.45;;;;;;;7.44;50.47;103081.78;4947763;28;113927;-66
2022/02/28 09:30:03;;;;;;;12.05;5.45;;;;;;;7.56;50.18;103087.13;4933707;28;123351;-66
2022/02/28 09:32:31;;;;;;;9.65;5.68;;;;;;;7.65;49.94;103081.88;4949512;28;123090;-66
2022/02/28 09:34:58;;;;;;;8.23;4.63;;;;;;;7.72;50.25;103073.13;4935090;28;114608;-66
2022/02/28 09:37:25;;;;;;;9.52;4.90;;;;;;;7.83;50.33;103074.91;4952593;28;114004;-66
2022/02/28 09:39:53;;;;;;;9.52;5.32;;;;;;;7.91;49.90;103074.06;4936793;28;123507;-65
2022/02/28 09:42:42;;;;;;;11.73;5.00;;;;;;;8.03;49.86;103072.31;4939106;28;124098;-66
2022/02/28 09:45:34;;;;;;;8.93;4.85;;;;;;;8.14;49.84;103062.66;4955129;28;115779;-65
2022/02/28 09:48:27;;;;;;;9.63;5.53;;;;;;;8.26;49.46;103060.00;4955255;28;115120;-65
2022/02/28 09:51:24;;;;;;;9.82;4.90;;;;;;;8.35;49.27;103060.00;4944914;28;124180;-65
2022/02/28 09:54:26;;;;;;;10.52;5.07;;;;;;;8.47;49.53;103058.28;4953876;28;123871;-66
2022/02/28 09:57:09;;;;;;;10.70;5.03;;;;;;;8.55;49.11;103054.75;4953898;28;114753;-65
2022/02/28 10:00:10;;;;;;;9.77;5.30;;;;;;;8.69;49.38;103053.84;4937949;28;114547;-65
2022/02/28 10:02:40;;;;;;;9.77;5.50;;;;;;;8.77;48.97;103058.22;4952484;28;124483;-65
2022/02/28 10:05:09;;;;;;;9.45;5.07;;;;;;;8.85;48.78;103054.69;4937774;28;123038;-65
2022/02/28 10:07:51;;;;;;;12.93;5.47;;;;;;;8.95;48.58;103056.44;4952738;28;114646;-65
2022/02/28 10:10:19;;;;;;;9.85;5.20;;;;;;;9.03;48.63;103054.66;4951243;28;114015;-65
2022/02/28 10:12:47;;;;;;;10.68;5.63;;;;;;;9.12;48.37;103049.34;4935398;28;124385;-65
2022/02/28 10:15:20;;;;;;;9.02;5.30;;;;;;;9.21;48.46;103053.72;4936856;28;124500;-65
2022/02/28 10:17:50;;;;;;;10.48;5.32;;;;;;;9.29;48.46;103045.75;4953162;28;113486;-65
2022/02/28 10:20:23;;;;;;;10.13;4.97;;;;;;;9.39;48.15;103044.81;4934097;28;114917;-65
2022/02/28 10:22:53;;;;;;;10.63;4.85;;;;;;;9.49;48.07;103041.25;4935804;28;124040;-66
2022/02/28 10:25:38;;;;;;;10.02;5.03;;;;;;;9.60;48.00;103042.97;4934081;28;124188;-67
2022/02/28 10:28:16;;;;;;;10.32;5.45;;;;;;;9.66;47.57;103034.97;4936792;28;117038;-66
2022/02/28 10:31:05;;;;;;;9.13;5.13;;;;;;;9.73;47.96;103034.06;4954856;28;114838;-66
2022/02/28 10:33:55;;;;;;;7.70;4.88;;;;;;;9.83;47.48;103038.41;4942002;28;125500;-66
2022/02/28 10:36:48;;;;;;;8.70;4.78;;;;;;;9.93;47.49;103034.81;4937064;28;125633;-66
2022/02/28 10:39:22;;;;;;;9.43;4.97;;;;;;;10.02;47.21;103027.69;4933532;28;115470;-66
2022/02/28 10:41:50;;;;;;;9.43;5.00;;;;;;;10.12;47.03;103024.09;4952468;28;114103;-66
2022/02/28 10:44:17;;;;;;;8.38;4.93;;;;;;;10.21;47.12;103024.00;4920463;28;122999;-64
2022/02/28 10:46:46;;;;;;;9.25;5.25;;;;;;;10.31;47.09;103035.44;4936568;28;122941;-65
2022/02/28 10:49:20;;;;;;;9.48;5.22;;;;;;;10.41;46.49;103036.22;4952837;28;113131;-64
2022/02/28 10:51:57;;;;;;;10.77;5.82;;;;;;;10.48;46.28;103037.94;4951141;28;114539;-64
2022/02/28 10:54:39;;;;;;;10.18;5.68;;;;;;;10.58;46.51;103044.03;4935900;28;123901;-65
2022/02/28 10:57:21;;;;;;;9.40;5.32;;;;;;;10.66;46.29;103036.88;4936777;28;123043;-65
2022/02/28 10:59:52;;;;;;;10.30;5.60;;;;;;;10.74;46.10;103023.53;4951696;28;114418;-65
2022/02/28 11:02:40;;;;;;;11.38;5.30;;;;;;;10.85;46.02;103024.28;4952996;28;114385;-65
2022/02/28 11:05:09;;;;;;;7.88;4.82;;;;;;;10.92;46.13;103015.38;4935745;28;123938;-65
2022/02/28 11:07:49;;;;;;;9.70;5.10;;;;;;;10.99;45.80;103019.72;4951842;28;123536;-65
2022/02/28 11:10:18;;;;;;;9.88;4.88;;;;;;;11.06;45.76;103016.09;4951500;28;114291;-65
2022/02/28 11:12:47;;;;;;;11.40;5.00;;;;;;;11.16;45.55;103005.38;4934956;28;114011;-65
2022/02/28 11:15:18;;;;;;;7.75;4.55;;;;;;;11.28;45.39;103005.22;4950663;28;124737;-65
2022/02/28 11:17:47;;;;;;;10.93;5.40;;;;;;;11.39;45.20;103013.03;4935377;28;124406;-64
2022/02/28 11:20:18;;;;;;;9.85;5.15;;;;;;;11.50;44.81;103009.31;4951591;28;115546;-65
2022/02/28 11:22:47;;;;;;;9.48;4.43;;;;;;;11.58;44.73;103013.66;4950922;28;113942;-65
2022/02/28 11:25:17;;;;;;;9.60;5.53;;;;;;;11.66;44.55;103009.13;4952244;28;124221;-65
2022/02/28 11:27:45;;;;;;;8.93;4.53;;;;;;;11.75;44.32;103008.97;4952643;28;123966;-65
2022/02/28 11:30:17;;;;;;;7.95;4.65;;;;;;;11.78;43.87;103006.28;4949423;28;115338;-65
2022/02/28 11:32:54;;;;;;;6.65;4.38;;;;;;;11.84;44.09;103003.50;4936015;28;113845;-65
2022/02/28 11:35:43;;;;;;;8.70;4.25;;;;;;;11.92;43.80;103002.56;4952568;28;124881;-66